Página principal
METAR-TAF:

METAR-TAF

Aeroportos :

Dubai, Emirados Árabes Unidos

Aeroporto Internacional de Dubai

latitude: 25-15-10N, longitude: 055-21-52E, altura: 8 m

Observação actual do tempo

O boletim foi feito há 30 minutos, às 17:00 UTC
Vento 5 kt de sudoeste
Temperatura 35°C
Humidade 63%
Pressão 995 hPa
Visibilidade 10 km ou mais
sem nuvens abaixo de 1500 metros e sem cumulonimbus

METAR: OMDB 281700Z 23005KT CAVOK 35/27 Q0995 NOSIG

Hora: 21:30 (17:30 UTC)

Previsão

O boletim foi feito há 6 horas e 15 minutos, às 11:15 UTC
Previsão válida de 28 às 12 UTC a 29 às 18 UTC
Vento 10 kt de nor-noroeste
Visibilidade 10 km ou mais
sem nuvens abaixo de 1500 metros e sem cumulonimbus
Tornando-se
de 28 às 14 UTC a 28 às 16 UTC
Vento 5 kt de es-sudeste
Tornando-se
de 29 às 09 UTC a 29 às 11 UTC
Vento 12 kt de norte
Tornando-se
de 29 às 14 UTC a 29 às 16 UTC
Vento 7 kt de es-sudeste

TAF: OMDB 281115Z 2812/2918 34010KT CAVOK BECMG 2814/2816 11005KT BECMG 2909/2911 36012KT BECMG 2914/2916 11007KT

Observações e previsões do tempo de mais de 4000 aeroportos (mensagens METAR e TAF).

As estações disponíveis são os pontos amarelos e vermelhos sobre o mapa.

Mova o rato sobre o mapa para ver o nome da estação.

Depois clique no ponto para visualizar as observações e previsões meteorológicas.

Para alterar o mapa : clique nos botões verdes com uma cruz preta para aumentar o zoom; no botão verde com uma pitada de zoom; ou nas setas verdes para mapas adjacentes.


METAR-TAF: